sensor_id;sensor_type;location;lat;lon;timestamp;temperature;humidity
2851;DHT22;1433;49.976;8.342;2023-04-19T00:01:38;10.70;99.90
2851;DHT22;1433;49.976;8.342;2023-04-19T00:04:06;10.70;99.90
2851;DHT22;1433;49.976;8.342;2023-04-19T00:06:33;10.80;99.90
2851;DHT22;1433;49.976;8.342;2023-04-19T00:09:00;10.80;99.90
2851;DHT22;1433;49.976;8.342;2023-04-19T00:11:27;10.80;99.90
2851;DHT22;1433;49.976;8.342;2023-04-19T00:13:53;10.90;99.90
2851;DHT22;1433;49.976;8.342;2023-04-19T00:16:19;10.90;99.90
2851;DHT22;1433;49.976;8.342;2023-04-19T00:18:46;10.90;99.90
2851;DHT22;1433;49.976;8.342;2023-04-19T00:21:13;10.90;99.90
2851;DHT22;1433;49.976;8.342;2023-04-19T00:23:39;10.90;99.90
2851;DHT22;1433;49.976;8.342;2023-04-19T00:26:05;10.90;99.90
2851;DHT22;1433;49.976;8.342;2023-04-19T00:28:32;10.90;99.90
2851;DHT22;1433;49.976;8.342;2023-04-19T00:30:59;11.00;99.90
2851;DHT22;1433;49.976;8.342;2023-04-19T00:33:25;11.00;99.90
2851;DHT22;1433;49.976;8.342;2023-04-19T00:35:51;11.00;99.90
2851;DHT22;1433;49.976;8.342;2023-04-19T00:38:19;11.00;99.90
2851;DHT22;1433;49.976;8.342;2023-04-19T00:40:45;10.90;99.90
2851;DHT22;1433;49.976;8.342;2023-04-19T00:43:19;10.90;99.90
2851;DHT22;1433;49.976;8.342;2023-04-19T00:45:46;10.90;99.90
2851;DHT22;1433;49.976;8.342;2023-04-19T00:48:13;10.90;99.90
2851;DHT22;1433;49.976;8.342;2023-04-19T00:50:42;10.90;99.90
2851;DHT22;1433;49.976;8.342;2023-04-19T00:53:08;10.90;99.90
2851;DHT22;1433;49.976;8.342;2023-04-19T00:55:39;10.90;99.90
2851;DHT22;1433;49.976;8.342;2023-04-19T00:58:07;10.80;99.90
2851;DHT22;1433;49.976;8.342;2023-04-19T01:00:34;10.80;99.90
2851;DHT22;1433;49.976;8.342;2023-04-19T01:03:01;10.80;99.90
2851;DHT22;1433;49.976;8.342;2023-04-19T01:05:27;10.80;99.90
2851;DHT22;1433;49.976;8.342;2023-04-19T01:07:53;10.80;99.90
2851;DHT22;1433;49.976;8.342;2023-04-19T01:10:19;10.70;99.90
2851;DHT22;1433;49.976;8.342;2023-04-19T01:12:47;10.70;99.90
2851;DHT22;1433;49.976;8.342;2023-04-19T01:15:13;10.80;99.90
2851;DHT22;1433;49.976;8.342;2023-04-19T01:17:40;10.80;99.90
2851;DHT22;1433;49.976;8.342;2023-04-19T01:20:07;10.80;99.90
2851;DHT22;1433;49.976;8.342;2023-04-19T01:22:34;10.80;99.90
2851;DHT22;1433;49.976;8.342;2023-04-19T01:25:04;10.80;99.90
2851;DHT22;1433;49.976;8.342;2023-04-19T01:27:31;10.80;99.90
2851;DHT22;1433;49.976;8.342;2023-04-19T01:29:57;10.80;99.90
2851;DHT22;1433;49.976;8.342;2023-04-19T01:32:25;10.80;99.90
2851;DHT22;1433;49.976;8.342;2023-04-19T01:34:51;10.80;99.90
2851;DHT22;1433;49.976;8.342;2023-04-19T01:37:18;10.70;99.90
2851;DHT22;1433;49.976;8.342;2023-04-19T01:39:44;10.70;99.90
2851;DHT22;1433;49.976;8.342;2023-04-19T01:42:10;10.70;99.90
2851;DHT22;1433;49.976;8.342;2023-04-19T01:44:36;10.70;99.90
2851;DHT22;1433;49.976;8.342;2023-04-19T01:47:03;10.70;99.90
2851;DHT22;1433;49.976;8.342;2023-04-19T01:49:29;10.70;99.90
2851;DHT22;1433;49.976;8.342;2023-04-19T01:51:55;10.70;99.90
2851;DHT22;1433;49.976;8.342;2023-04-19T01:54:22;10.80;99.90
2851;DHT22;1433;49.976;8.342;2023-04-19T01:56:49;10.70;99.90
2851;DHT22;1433;49.976;8.342;2023-04-19T01:59:15;10.80;99.90
2851;DHT22;1433;49.976;8.342;2023-04-19T02:01:41;10.80;99.90
2851;DHT22;1433;49.976;8.342;2023-04-19T02:04:08;10.70;99.90
2851;DHT22;1433;49.976;8.342;2023-04-19T02:06:34;10.80;99.90
2851;DHT22;1433;49.976;8.342;2023-04-19T02:09:02;10.70;99.90
2851;DHT22;1433;49.976;8.342;2023-04-19T02:11:29;10.70;99.90
2851;DHT22;1433;49.976;8.342;2023-04-19T02:13:55;10.70;99.90
2851;DHT22;1433;49.976;8.342;2023-04-19T02:16:21;10.70;99.90
2851;DHT22;1433;49.976;8.342;2023-04-19T02:18:49;10.70;99.90
2851;DHT22;1433;49.976;8.342;2023-04-19T02:21:17;10.60;99.90
2851;DHT22;1433;49.976;8.342;2023-04-19T02:23:43;10.70;99.90
2851;DHT22;1433;49.976;8.342;2023-04-19T02:26:09;10.60;99.90
2851;DHT22;1433;49.976;8.342;2023-04-19T02:28:36;10.60;99.90
2851;DHT22;1433;49.976;8.342;2023-04-19T02:31:05;10.60;99.90
2851;DHT22;1433;49.976;8.342;2023-04-19T02:33:33;10.50;99.90
2851;DHT22;1433;49.976;8.342;2023-04-19T02:35:59;10.60;99.90
2851;DHT22;1433;49.976;8.342;2023-04-19T02:38:26;10.50;99.90
2851;DHT22;1433;49.976;8.342;2023-04-19T02:40:53;10.50;99.90
2851;DHT22;1433;49.976;8.342;2023-04-19T02:43:19;10.50;99.90
2851;DHT22;1433;49.976;8.342;2023-04-19T02:45:45;10.50;99.90
2851;DHT22;1433;49.976;8.342;2023-04-19T02:48:12;10.50;99.90
2851;DHT22;1433;49.976;8.342;2023-04-19T02:50:38;10.50;99.90
2851;DHT22;1433;49.976;8.342;2023-04-19T02:53:04;10.50;99.90
2851;DHT22;1433;49.976;8.342;2023-04-19T02:55:31;10.50;99.90
2851;DHT22;1433;49.976;8.342;2023-04-19T02:58:03;10.50;99.90
2851;DHT22;1433;49.976;8.342;2023-04-19T03:00:31;10.40;99.90
2851;DHT22;1433;49.976;8.342;2023-04-19T03:03:02;10.40;99.90
2851;DHT22;1433;49.976;8.342;2023-04-19T03:05:29;10.40;99.90
2851;DHT22;1433;49.976;8.342;2023-04-19T03:07:55;10.40;99.90
2851;DHT22;1433;49.976;8.342;2023-04-19T03:10:22;10.40;99.90
2851;DHT22;1433;49.976;8.342;2023-04-19T03:12:48;10.40;99.90
2851;DHT22;1433;49.976;8.342;2023-04-19T03:15:15;10.30;99.90
2851;DHT22;1433;49.976;8.342;2023-04-19T03:17:41;10.40;99.90
2851;DHT22;1433;49.976;8.342;2023-04-19T03:20:08;10.40;99.90
2851;DHT22;1433;49.976;8.342;2023-04-19T03:22:36;10.30;99.90
2851;DHT22;1433;49.976;8.342;2023-04-19T03:25:03;10.30;99.90
2851;DHT22;1433;49.976;8.342;2023-04-19T03:27:30;10.30;99.90
2851;DHT22;1433;49.976;8.342;2023-04-19T03:29:58;10.30;99.90
2851;DHT22;1433;49.976;8.342;2023-04-19T03:32:25;10.20;99.90
2851;DHT22;1433;49.976;8.342;2023-04-19T03:34:52;10.20;99.90
2851;DHT22;1433;49.976;8.342;2023-04-19T03:37:18;10.10;99.90
2851;DHT22;1433;49.976;8.342;2023-04-19T03:39:45;10.10;99.90
2851;DHT22;1433;49.976;8.342;2023-04-19T03:42:13;10.10;99.90
2851;DHT22;1433;49.976;8.342;2023-04-19T03:44:41;10.00;99.90
2851;DHT22;1433;49.976;8.342;2023-04-19T03:47:08;10.00;99.90
2851;DHT22;1433;49.976;8.342;2023-04-19T03:49:37;10.00;99.90
2851;DHT22;1433;49.976;8.342;2023-04-19T03:52:04;10.00;99.90
2851;DHT22;1433;49.976;8.342;2023-04-19T03:54:30;10.00;99.90
2851;DHT22;1433;49.976;8.342;2023-04-19T03:56:57;10.00;99.90
2851;DHT22;1433;49.976;8.342;2023-04-19T03:59:24;9.90;99.90
2851;DHT22;1433;49.976;8.342;2023-04-19T04:01:51;9.90;99.90
2851;DHT22;1433;49.976;8.342;2023-04-19T04:04:17;9.90;99.90
2851;DHT22;1433;49.976;8.342;2023-04-19T04:06:44;9.80;99.90
2851;DHT22;1433;49.976;8.342;2023-04-19T04:09:11;9.80;99.90
2851;DHT22;1433;49.976;8.342;2023-04-19T04:11:38;9.80;99.90
2851;DHT22;1433;49.976;8.342;2023-04-19T04:14:05;9.70;99.90
2851;DHT22;1433;49.976;8.342;2023-04-19T04:16:33;9.60;99.90
2851;DHT22;1433;49.976;8.342;2023-04-19T04:19:00;9.60;99.90
2851;DHT22;1433;49.976;8.342;2023-04-19T04:21:27;9.50;99.90
2851;DHT22;1433;49.976;8.342;2023-04-19T04:23:53;9.40;99.90
2851;DHT22;1433;49.976;8.342;2023-04-19T04:26:30;9.40;99.90
2851;DHT22;1433;49.976;8.342;2023-04-19T04:28:58;9.40;99.90
2851;DHT22;1433;49.976;8.342;2023-04-19T04:31:27;9.40;99.90
2851;DHT22;1433;49.976;8.342;2023-04-19T04:33:53;9.40;99.90
2851;DHT22;1433;49.976;8.342;2023-04-19T04:36:20;9.40;99.90
2851;DHT22;1433;49.976;8.342;2023-04-19T04:38:47;9.40;99.90
2851;DHT22;1433;49.976;8.342;2023-04-19T04:41:14;9.50;99.90
2851;DHT22;1433;49.976;8.342;2023-04-19T04:43:41;9.50;99.90
2851;DHT22;1433;49.976;8.342;2023-04-19T04:46:08;9.50;99.90
2851;DHT22;1433;49.976;8.342;2023-04-19T04:48:36;9.50;99.90
2851;DHT22;1433;49.976;8.342;2023-04-19T04:51:03;9.50;99.90
2851;DHT22;1433;49.976;8.342;2023-04-19T04:53:30;9.60;99.90
2851;DHT22;1433;49.976;8.342;2023-04-19T04:55:56;9.60;99.90
2851;DHT22;1433;49.976;8.342;2023-04-19T04:58:23;9.70;99.90
2851;DHT22;1433;49.976;8.342;2023-04-19T05:01:03;9.70;99.90
2851;DHT22;1433;49.976;8.342;2023-04-19T05:03:31;9.70;99.90
2851;DHT22;1433;49.976;8.342;2023-04-19T05:05:59;9.60;99.90
2851;DHT22;1433;49.976;8.342;2023-04-19T05:08:25;9.70;99.90
2851;DHT22;1433;49.976;8.342;2023-04-19T05:10:53;9.80;99.90
2851;DHT22;1433;49.976;8.342;2023-04-19T05:13:21;9.90;99.90
2851;DHT22;1433;49.976;8.342;2023-04-19T05:15:48;10.00;99.90
2851;DHT22;1433;49.976;8.342;2023-04-19T05:18:14;10.10;99.90
2851;DHT22;1433;49.976;8.342;2023-04-19T05:20:41;10.20;99.90
2851;DHT22;1433;49.976;8.342;2023-04-19T05:23:09;10.30;99.90
2851;DHT22;1433;49.976;8.342;2023-04-19T05:25:36;10.30;99.90
2851;DHT22;1433;49.976;8.342;2023-04-19T05:28:03;10.30;99.90
2851;DHT22;1433;49.976;8.342;2023-04-19T05:30:31;10.40;99.90
2851;DHT22;1433;49.976;8.342;2023-04-19T05:32:59;10.40;99.90
2851;DHT22;1433;49.976;8.342;2023-04-19T05:35:25;10.50;99.90
2851;DHT22;1433;49.976;8.342;2023-04-19T05:37:52;10.50;99.90
2851;DHT22;1433;49.976;8.342;2023-04-19T05:40:18;10.50;99.90
2851;DHT22;1433;49.976;8.342;2023-04-19T05:42:44;10.60;99.90
2851;DHT22;1433;49.976;8.342;2023-04-19T05:45:11;10.60;99.90
2851;DHT22;1433;49.976;8.342;2023-04-19T05:47:38;10.70;99.90
2851;DHT22;1433;49.976;8.342;2023-04-19T05:50:23;10.70;99.90
2851;DHT22;1433;49.976;8.342;2023-04-19T05:53:06;10.80;99.90
2851;DHT22;1433;49.976;8.342;2023-04-19T05:55:32;10.80;99.90
2851;DHT22;1433;49.976;8.342;2023-04-19T05:57:58;10.90;99.90
2851;DHT22;1433;49.976;8.342;2023-04-19T06:00:24;11.00;99.90
2851;DHT22;1433;49.976;8.342;2023-04-19T06:02:52;11.10;99.90
2851;DHT22;1433;49.976;8.342;2023-04-19T06:05:19;11.20;99.90
2851;DHT22;1433;49.976;8.342;2023-04-19T06:07:46;11.20;99.90
2851;DHT22;1433;49.976;8.342;2023-04-19T06:10:12;11.30;99.90
2851;DHT22;1433;49.976;8.342;2023-04-19T06:12:38;11.50;99.90
2851;DHT22;1433;49.976;8.342;2023-04-19T06:15:06;11.70;99.90
2851;DHT22;1433;49.976;8.342;2023-04-19T06:17:33;11.70;99.90
2851;DHT22;1433;49.976;8.342;2023-04-19T06:19:59;11.80;99.90
2851;DHT22;1433;49.976;8.342;2023-04-19T06:22:25;11.80;99.90
2851;DHT22;1433;49.976;8.342;2023-04-19T06:24:51;11.90;99.90
2851;DHT22;1433;49.976;8.342;2023-04-19T06:27:17;12.00;99.90
2851;DHT22;1433;49.976;8.342;2023-04-19T06:29:43;12.10;99.90
2851;DHT22;1433;49.976;8.342;2023-04-19T06:32:10;12.10;99.90
2851;DHT22;1433;49.976;8.342;2023-04-19T06:34:36;12.10;99.90
2851;DHT22;1433;49.976;8.342;2023-04-19T06:37:02;12.20;99.90
2851;DHT22;1433;49.976;8.342;2023-04-19T06:39:29;12.20;99.90
2851;DHT22;1433;49.976;8.342;2023-04-19T06:41:55;12.40;99.90
2851;DHT22;1433;49.976;8.342;2023-04-19T06:44:21;12.40;99.90
2851;DHT22;1433;49.976;8.342;2023-04-19T06:46:47;12.40;99.90
2851;DHT22;1433;49.976;8.342;2023-04-19T06:49:13;12.40;78.10
2851;DHT22;1433;49.976;8.342;2023-04-19T06:51:40;12.40;29.80
2851;DHT22;1433;49.976;8.342;2023-04-19T06:54:06;12.40;66.60
2851;DHT22;1433;49.976;8.342;2023-04-19T06:56:40;12.50;7.90
2851;DHT22;1433;49.976;8.342;2023-04-19T06:59:12;12.50;99.90
2851;DHT22;1433;49.976;8.342;2023-04-19T07:01:39;12.50;1.00
2851;DHT22;1433;49.976;8.342;2023-04-19T07:04:06;12.50;1.00
2851;DHT22;1433;49.976;8.342;2023-04-19T07:06:36;12.40;1.00
2851;DHT22;1433;49.976;8.342;2023-04-19T07:09:04;12.50;1.00
2851;DHT22;1433;49.976;8.342;2023-04-19T07:11:31;12.50;1.00
2851;DHT22;1433;49.976;8.342;2023-04-19T07:13:57;12.60;1.00
2851;DHT22;1433;49.976;8.342;2023-04-19T07:16:26;12.60;1.00
2851;DHT22;1433;49.976;8.342;2023-04-19T07:18:54;12.60;99.90
2851;DHT22;1433;49.976;8.342;2023-04-19T07:21:20;12.60;1.00
2851;DHT22;1433;49.976;8.342;2023-04-19T07:23:46;12.70;99.90
2851;DHT22;1433;49.976;8.342;2023-04-19T07:26:13;12.80;1.00
2851;DHT22;1433;49.976;8.342;2023-04-19T07:28:39;12.70;1.00
2851;DHT22;1433;49.976;8.342;2023-04-19T07:31:06;12.60;1.00
2851;DHT22;1433;49.976;8.342;2023-04-19T07:33:33;12.40;1.00
2851;DHT22;1433;49.976;8.342;2023-04-19T07:35:59;12.30;1.00
2851;DHT22;1433;49.976;8.342;2023-04-19T07:38:25;12.20;1.00
2851;DHT22;1433;49.976;8.342;2023-04-19T07:40:51;12.10;1.00
2851;DHT22;1433;49.976;8.342;2023-04-19T07:43:17;12.00;1.00
2851;DHT22;1433;49.976;8.342;2023-04-19T07:45:43;12.00;99.90
2851;DHT22;1433;49.976;8.342;2023-04-19T07:48:09;12.10;99.90
2851;DHT22;1433;49.976;8.342;2023-04-19T07:50:36;12.10;99.90
2851;DHT22;1433;49.976;8.342;2023-04-19T07:53:02;12.30;1.00
2851;DHT22;1433;49.976;8.342;2023-04-19T07:55:29;12.40;1.00
2851;DHT22;1433;49.976;8.342;2023-04-19T07:57:55;12.60;1.00
2851;DHT22;1433;49.976;8.342;2023-04-19T08:00:21;12.50;1.00
2851;DHT22;1433;49.976;8.342;2023-04-19T08:02:47;12.60;1.00
2851;DHT22;1433;49.976;8.342;2023-04-19T08:05:14;12.70;99.90
2851;DHT22;1433;49.976;8.342;2023-04-19T08:07:43;12.80;99.90
2851;DHT22;1433;49.976;8.342;2023-04-19T08:10:10;12.70;99.90
2851;DHT22;1433;49.976;8.342;2023-04-19T08:12:37;12.70;1.00
2851;DHT22;1433;49.976;8.342;2023-04-19T08:15:05;12.70;99.90
2851;DHT22;1433;49.976;8.342;2023-04-19T08:17:32;12.60;99.90
2851;DHT22;1433;49.976;8.342;2023-04-19T08:19:58;12.60;99.90
2851;DHT22;1433;49.976;8.342;2023-04-19T08:22:25;12.70;99.90
2851;DHT22;1433;49.976;8.342;2023-04-19T08:24:52;12.70;99.90
2851;DHT22;1433;49.976;8.342;2023-04-19T08:27:19;12.90;99.90
2851;DHT22;1433;49.976;8.342;2023-04-19T08:29:45;13.00;2.30
2851;DHT22;1433;49.976;8.342;2023-04-19T08:32:12;13.00;1.00
2851;DHT22;1433;49.976;8.342;2023-04-19T08:34:39;13.20;18.60
2851;DHT22;1433;49.976;8.342;2023-04-19T08:37:05;13.10;1.00
2851;DHT22;1433;49.976;8.342;2023-04-19T08:39:32;13.10;1.00
2851;DHT22;1433;49.976;8.342;2023-04-19T08:42:07;13.30;1.00
2851;DHT22;1433;49.976;8.342;2023-04-19T08:44:34;13.40;1.00
2851;DHT22;1433;49.976;8.342;2023-04-19T08:47:04;13.30;1.00
2851;DHT22;1433;49.976;8.342;2023-04-19T08:49:35;13.30;1.00
2851;DHT22;1433;49.976;8.342;2023-04-19T08:52:05;13.50;1.00
2851;DHT22;1433;49.976;8.342;2023-04-19T08:54:34;13.50;1.00
2851;DHT22;1433;49.976;8.342;2023-04-19T08:57:01;13.60;1.00
2851;DHT22;1433;49.976;8.342;2023-04-19T08:59:28;13.90;1.00
2851;DHT22;1433;49.976;8.342;2023-04-19T09:01:59;14.00;1.00
2851;DHT22;1433;49.976;8.342;2023-04-19T09:04:24;14.10;99.90
2851;DHT22;1433;49.976;8.342;2023-04-19T09:06:50;14.00;99.90
2851;DHT22;1433;49.976;8.342;2023-04-19T09:09:23;14.10;1.00
2851;DHT22;1433;49.976;8.342;2023-04-19T09:11:46;14.00;1.00
2851;DHT22;1433;49.976;8.342;2023-04-19T09:14:14;13.80;1.00
2851;DHT22;1433;49.976;8.342;2023-04-19T09:16:42;13.90;99.90
2851;DHT22;1433;49.976;8.342;2023-04-19T09:19:08;13.80;1.00
2851;DHT22;1433;49.976;8.342;2023-04-19T09:21:35;13.70;1.00
2851;DHT22;1433;49.976;8.342;2023-04-19T09:24:01;13.70;1.00
2851;DHT22;1433;49.976;8.342;2023-04-19T09:26:28;13.90;1.00
2851;DHT22;1433;49.976;8.342;2023-04-19T09:28:55;14.10;1.00
2851;DHT22;1433;49.976;8.342;2023-04-19T09:31:23;14.30;1.00
2851;DHT22;1433;49.976;8.342;2023-04-19T09:33:50;14.20;1.00
2851;DHT22;1433;49.976;8.342;2023-04-19T09:36:30;14.30;99.90
2851;DHT22;1433;49.976;8.342;2023-04-19T09:38:57;14.40;1.00
2851;DHT22;1433;49.976;8.342;2023-04-19T09:41:24;14.40;99.90
2851;DHT22;1433;49.976;8.342;2023-04-19T09:43:51;14.50;36.20
2851;DHT22;1433;49.976;8.342;2023-04-19T09:46:34;14.60;1.00
2851;DHT22;1433;49.976;8.342;2023-04-19T09:49:19;15.00;1.00
2851;DHT22;1433;49.976;8.342;2023-04-19T09:51:46;15.50;1.00
2851;DHT22;1433;49.976;8.342;2023-04-19T09:54:14;15.70;1.00
2851;DHT22;1433;49.976;8.342;2023-04-19T09:56:41;15.70;1.00
2851;DHT22;1433;49.976;8.342;2023-04-19T09:59:08;15.70;1.00
2851;DHT22;1433;49.976;8.342;2023-04-19T10:01:45;16.00;99.90
2851;DHT22;1433;49.976;8.342;2023-04-19T10:04:13;15.90;1.00
2851;DHT22;1433;49.976;8.342;2023-04-19T10:06:42;16.10;1.00
2851;DHT22;1433;49.976;8.342;2023-04-19T10:09:09;16.20;44.70
2851;DHT22;1433;49.976;8.342;2023-04-19T10:11:36;16.50;1.00
2851;DHT22;1433;49.976;8.342;2023-04-19T10:14:07;16.50;99.90
2851;DHT22;1433;49.976;8.342;2023-04-19T10:16:34;16.60;99.90
2851;DHT22;1433;49.976;8.342;2023-04-19T10:19:03;17.00;1.00
2851;DHT22;1433;49.976;8.342;2023-04-19T10:21:30;17.30;99.90
2851;DHT22;1433;49.976;8.342;2023-04-19T10:23:58;17.20;99.90
2851;DHT22;1433;49.976;8.342;2023-04-19T10:26:24;17.30;99.90
2851;DHT22;1433;49.976;8.342;2023-04-19T10:28:53;17.10;99.90
2851;DHT22;1433;49.976;8.342;2023-04-19T10:31:20;17.00;99.90
2851;DHT22;1433;49.976;8.342;2023-04-19T10:33:49;17.20;99.90
2851;DHT22;1433;49.976;8.342;2023-04-19T10:36:17;17.10;1.00
2851;DHT22;1433;49.976;8.342;2023-04-19T10:38:48;17.20;1.00
2851;DHT22;1433;49.976;8.342;2023-04-19T10:41:17;17.10;99.90
2851;DHT22;1433;49.976;8.342;2023-04-19T10:43:48;17.30;1.00
2851;DHT22;1433;49.976;8.342;2023-04-19T10:51:25;17.20;1.00
2851;DHT22;1433;49.976;8.342;2023-04-19T11:09:27;18.20;99.90
2851;DHT22;1433;49.976;8.342;2023-04-19T11:12:03;18.50;1.00
2851;DHT22;1433;49.976;8.342;2023-04-19T11:14:33;18.50;1.00
2851;DHT22;1433;49.976;8.342;2023-04-19T11:17:03;18.60;1.00
2851;DHT22;1433;49.976;8.342;2023-04-19T11:19:29;18.90;1.00
2851;DHT22;1433;49.976;8.342;2023-04-19T11:21:57;19.50;94.60
2851;DHT22;1433;49.976;8.342;2023-04-19T11:24:24;18.60;99.90
2851;DHT22;1433;49.976;8.342;2023-04-19T11:26:50;18.00;83.30
2851;DHT22;1433;49.976;8.342;2023-04-19T11:29:18;18.60;99.90
2851;DHT22;1433;49.976;8.342;2023-04-19T11:31:45;19.30;1.00
2851;DHT22;1433;49.976;8.342;2023-04-19T11:34:12;19.30;99.90
2851;DHT22;1433;49.976;8.342;2023-04-19T11:36:49;19.80;99.90
2851;DHT22;1433;49.976;8.342;2023-04-19T11:39:15;20.70;46.00
2851;DHT22;1433;49.976;8.342;2023-04-19T11:41:41;20.40;99.90
2851;DHT22;1433;49.976;8.342;2023-04-19T11:44:17;19.60;1.00
2851;DHT22;1433;49.976;8.342;2023-04-19T11:49:27;19.70;1.00
2851;DHT22;1433;49.976;8.342;2023-04-19T11:52:00;20.70;1.00
2851;DHT22;1433;49.976;8.342;2023-04-19T11:54:27;20.90;99.90
2851;DHT22;1433;49.976;8.342;2023-04-19T11:57:05;20.90;99.90
2851;DHT22;1433;49.976;8.342;2023-04-19T11:59:33;20.70;99.90
2851;DHT22;1433;49.976;8.342;2023-04-19T12:02:07;20.80;99.90
2851;DHT22;1433;49.976;8.342;2023-04-19T12:04:33;21.30;99.90
2851;DHT22;1433;49.976;8.342;2023-04-19T12:07:01;21.00;99.90
2851;DHT22;1433;49.976;8.342;2023-04-19T12:09:28;20.70;99.90
2851;DHT22;1433;49.976;8.342;2023-04-19T12:11:54;19.60;99.90
2851;DHT22;1433;49.976;8.342;2023-04-19T12:14:21;19.00;99.90
2851;DHT22;1433;49.976;8.342;2023-04-19T12:17:11;19.10;99.90
2851;DHT22;1433;49.976;8.342;2023-04-19T12:19:43;19.50;99.90
2851;DHT22;1433;49.976;8.342;2023-04-19T12:22:11;19.70;99.90
2851;DHT22;1433;49.976;8.342;2023-04-19T12:24:38;19.90;99.90
2851;DHT22;1433;49.976;8.342;2023-04-19T12:27:05;20.30;99.90
2851;DHT22;1433;49.976;8.342;2023-04-19T12:29:32;20.10;99.90
2851;DHT22;1433;49.976;8.342;2023-04-19T12:31:59;20.10;99.90
2851;DHT22;1433;49.976;8.342;2023-04-19T12:34:26;20.50;99.90
2851;DHT22;1433;49.976;8.342;2023-04-19T12:36:53;20.90;99.90
2851;DHT22;1433;49.976;8.342;2023-04-19T12:39:19;21.20;99.90
2851;DHT22;1433;49.976;8.342;2023-04-19T12:41:46;21.30;99.90
2851;DHT22;1433;49.976;8.342;2023-04-19T12:44:15;21.40;99.90
2851;DHT22;1433;49.976;8.342;2023-04-19T12:46:41;21.10;99.90
2851;DHT22;1433;49.976;8.342;2023-04-19T12:49:07;21.20;99.90
2851;DHT22;1433;49.976;8.342;2023-04-19T12:51:33;22.00;99.90
2851;DHT22;1433;49.976;8.342;2023-04-19T12:54:00;21.60;99.90
2851;DHT22;1433;49.976;8.342;2023-04-19T12:56:27;21.70;99.90
2851;DHT22;1433;49.976;8.342;2023-04-19T12:58:53;21.70;99.90
2851;DHT22;1433;49.976;8.342;2023-04-19T13:01:19;21.80;99.90
2851;DHT22;1433;49.976;8.342;2023-04-19T13:03:45;21.00;99.90
2851;DHT22;1433;49.976;8.342;2023-04-19T13:06:12;21.30;99.90
2851;DHT22;1433;49.976;8.342;2023-04-19T13:08:40;21.30;99.90
2851;DHT22;1433;49.976;8.342;2023-04-19T13:11:06;21.40;99.90
2851;DHT22;1433;49.976;8.342;2023-04-19T13:13:34;21.30;99.90
2851;DHT22;1433;49.976;8.342;2023-04-19T13:16:00;21.50;99.90
2851;DHT22;1433;49.976;8.342;2023-04-19T13:18:26;21.40;99.90
2851;DHT22;1433;49.976;8.342;2023-04-19T13:20:53;21.10;99.90
2851;DHT22;1433;49.976;8.342;2023-04-19T13:23:19;21.40;99.90
2851;DHT22;1433;49.976;8.342;2023-04-19T13:25:45;21.60;99.90
2851;DHT22;1433;49.976;8.342;2023-04-19T13:28:11;22.30;99.90
2851;DHT22;1433;49.976;8.342;2023-04-19T13:30:37;22.40;99.90
2851;DHT22;1433;49.976;8.342;2023-04-19T13:33:03;22.30;23.30
2851;DHT22;1433;49.976;8.342;2023-04-19T13:35:30;22.00;99.90
2851;DHT22;1433;49.976;8.342;2023-04-19T13:37:56;21.90;99.90
2851;DHT22;1433;49.976;8.342;2023-04-19T13:40:22;22.70;1.00
2851;DHT22;1433;49.976;8.342;2023-04-19T13:42:48;22.60;1.00
2851;DHT22;1433;49.976;8.342;2023-04-19T13:45:14;22.10;1.00
2851;DHT22;1433;49.976;8.342;2023-04-19T13:47:41;22.30;99.90
2851;DHT22;1433;49.976;8.342;2023-04-19T13:50:07;22.60;99.90
2851;DHT22;1433;49.976;8.342;2023-04-19T13:52:33;22.20;1.00
2851;DHT22;1433;49.976;8.342;2023-04-19T13:55:00;22.10;1.00
2851;DHT22;1433;49.976;8.342;2023-04-19T13:57:26;22.30;99.90
2851;DHT22;1433;49.976;8.342;2023-04-19T13:59:52;22.90;99.90
2851;DHT22;1433;49.976;8.342;2023-04-19T14:02:18;22.60;99.90
2851;DHT22;1433;49.976;8.342;2023-04-19T14:04:45;22.70;99.90
2851;DHT22;1433;49.976;8.342;2023-04-19T14:07:13;23.00;99.90
2851;DHT22;1433;49.976;8.342;2023-04-19T14:09:41;23.30;99.90
2851;DHT22;1433;49.976;8.342;2023-04-19T14:12:08;22.80;99.90
2851;DHT22;1433;49.976;8.342;2023-04-19T14:14:34;22.80;99.90
2851;DHT22;1433;49.976;8.342;2023-04-19T14:17:00;22.40;99.90
2851;DHT22;1433;49.976;8.342;2023-04-19T14:19:27;22.60;99.90
2851;DHT22;1433;49.976;8.342;2023-04-19T14:21:54;22.60;99.90
2851;DHT22;1433;49.976;8.342;2023-04-19T14:24:37;23.00;99.90
2851;DHT22;1433;49.976;8.342;2023-04-19T14:27:03;23.10;99.90
2851;DHT22;1433;49.976;8.342;2023-04-19T14:29:31;22.90;99.90
2851;DHT22;1433;49.976;8.342;2023-04-19T14:31:57;23.60;99.90
2851;DHT22;1433;49.976;8.342;2023-04-19T14:34:24;23.40;99.90
2851;DHT22;1433;49.976;8.342;2023-04-19T14:36:50;23.30;99.90
2851;DHT22;1433;49.976;8.342;2023-04-19T14:39:17;22.90;99.90
2851;DHT22;1433;49.976;8.342;2023-04-19T14:41:43;22.90;99.90
2851;DHT22;1433;49.976;8.342;2023-04-19T14:44:09;23.60;99.90
2851;DHT22;1433;49.976;8.342;2023-04-19T14:46:35;23.70;99.90
2851;DHT22;1433;49.976;8.342;2023-04-19T14:49:01;24.40;99.90
2851;DHT22;1433;49.976;8.342;2023-04-19T14:51:31;23.80;99.90
2851;DHT22;1433;49.976;8.342;2023-04-19T14:53:58;23.30;99.90
2851;DHT22;1433;49.976;8.342;2023-04-19T14:56:24;23.20;99.90
2851;DHT22;1433;49.976;8.342;2023-04-19T14:58:53;22.90;99.90
2851;DHT22;1433;49.976;8.342;2023-04-19T15:01:19;23.00;99.90
2851;DHT22;1433;49.976;8.342;2023-04-19T15:03:48;23.40;99.90
2851;DHT22;1433;49.976;8.342;2023-04-19T15:06:15;23.40;99.90
2851;DHT22;1433;49.976;8.342;2023-04-19T15:08:41;23.40;99.90
2851;DHT22;1433;49.976;8.342;2023-04-19T15:11:08;22.90;1.00
2851;DHT22;1433;49.976;8.342;2023-04-19T15:13:34;22.70;32.00
2851;DHT22;1433;49.976;8.342;2023-04-19T15:16:00;22.90;99.90
2851;DHT22;1433;49.976;8.342;2023-04-19T15:18:29;22.50;1.00
2851;DHT22;1433;49.976;8.342;2023-04-19T15:20:55;22.30;39.80
2851;DHT22;1433;49.976;8.342;2023-04-19T15:23:22;22.20;99.90
2851;DHT22;1433;49.976;8.342;2023-04-19T15:25:50;21.90;99.90
2851;DHT22;1433;49.976;8.342;2023-04-19T15:28:16;21.80;30.30
2851;DHT22;1433;49.976;8.342;2023-04-19T15:30:43;22.20;1.00
2851;DHT22;1433;49.976;8.342;2023-04-19T15:33:10;22.40;99.90
2851;DHT22;1433;49.976;8.342;2023-04-19T15:35:37;22.00;99.90
2851;DHT22;1433;49.976;8.342;2023-04-19T15:38:03;22.00;1.00
2851;DHT22;1433;49.976;8.342;2023-04-19T15:40:30;22.30;99.90
2851;DHT22;1433;49.976;8.342;2023-04-19T15:42:56;22.50;1.00
2851;DHT22;1433;49.976;8.342;2023-04-19T15:45:23;22.10;99.90
2851;DHT22;1433;49.976;8.342;2023-04-19T15:47:49;22.30;1.00
2851;DHT22;1433;49.976;8.342;2023-04-19T15:50:15;22.40;1.00
2851;DHT22;1433;49.976;8.342;2023-04-19T15:52:41;22.10;1.00
2851;DHT22;1433;49.976;8.342;2023-04-19T15:55:08;21.60;51.10
2851;DHT22;1433;49.976;8.342;2023-04-19T15:57:34;21.80;1.00
2851;DHT22;1433;49.976;8.342;2023-04-19T16:00:00;21.70;99.90
2851;DHT22;1433;49.976;8.342;2023-04-19T16:02:26;21.60;99.90
2851;DHT22;1433;49.976;8.342;2023-04-19T16:04:53;21.30;99.90
2851;DHT22;1433;49.976;8.342;2023-04-19T16:07:19;22.00;99.90
2851;DHT22;1433;49.976;8.342;2023-04-19T16:09:45;21.60;99.90
2851;DHT22;1433;49.976;8.342;2023-04-19T16:12:11;21.40;99.90
2851;DHT22;1433;49.976;8.342;2023-04-19T16:14:37;21.00;99.90
2851;DHT22;1433;49.976;8.342;2023-04-19T16:17:03;21.00;99.90
2851;DHT22;1433;49.976;8.342;2023-04-19T16:19:29;20.20;99.90
2851;DHT22;1433;49.976;8.342;2023-04-19T16:21:55;19.60;99.90
2851;DHT22;1433;49.976;8.342;2023-04-19T16:24:22;19.50;99.90
2851;DHT22;1433;49.976;8.342;2023-04-19T16:26:48;19.40;99.90
2851;DHT22;1433;49.976;8.342;2023-04-19T16:29:14;19.10;99.90
2851;DHT22;1433;49.976;8.342;2023-04-19T16:31:40;18.70;99.90